BKA weather

CLOSED Bykovo Airport
Moscow, Moscow Oblast, Russia

Public forecast

Using degrees Celsius for public forecast. Weather courtesy of forecast.io.

Closest aviation weather report (METAR) to Bykovo Airport

Report is more than 6 hours old.

Closest report is Zhukovsky International Airport, 4.9 nm (9.1 km) SE. Retrieved 2019/10/10 11:00 UTC (4 days ago):

UUBW 101100Z 14004MPS 9999 -SHRA BKN011CB 09/07 Q1009 R30/210050 NOSIG

Closest aviation forecast (TAF) to Bykovo Airport

Forecast is more than 12 hours old.

Closest forecast is Zhukovsky International Airport, 4.9 nm (9.1 km) SE. Retrieved 2019/10/10 09:00 UTC (4 days ago):

TAF UUBW 100750Z 1009/1109 13003G08MPS 5000 -RA FEW004 OVC011 TX10/1012Z TN07/1103Z TEMPO 1012/1021 16008MPS 1400 SHRA SCT003 BKN012CB FM102100 24006MPS 6000 BKN015 TEMPO 1021/1106 -SHRA FEW004 BKN020CB